Time;durP1;ratioP1;P1;durP2;ratioP2;P2;SDS_P1;SDS_P2;PMS_P1;PMS_P2;Temp;Humidity;BMP_temperature;BMP_pressure;BME280_temperature;BME280_humidity;BME280_pressure;Samples;Min_cycle;Max_cycle;Signal;HPM_P1;HPM_P2
2023/02/18 00:00:56;;;;;;;1999.90;999.90;;;10.90;99.90;;;;;;5093613;28;20016;-78
2023/02/18 00:03:26;;;;;;;1999.90;999.90;;;11.00;99.90;;;;;;5093807;28;20028;-73
2023/02/18 00:05:52;;;;;;;1999.90;999.90;;;10.90;99.90;;;;;;5093793;28;20060;-73
2023/02/18 00:08:18;;;;;;;1999.90;999.90;;;10.90;99.90;;;;;;5093835;28;20032;-73
2023/02/18 00:10:44;;;;;;;1999.90;999.90;;;10.90;99.90;;;;;;5093821;28;20368;-73
2023/02/18 00:13:09;;;;;;;1999.90;999.90;;;10.90;99.90;;;;;;5093586;28;20089;-73
2023/02/18 00:15:36;;;;;;;1999.90;999.90;;;10.90;99.90;;;;;;5093680;28;20062;-73
2023/02/18 00:18:02;;;;;;;1999.90;999.90;;;10.90;99.90;;;;;;5093697;28;20028;-73
2023/02/18 00:20:27;;;;;;;1999.90;999.90;;;10.90;99.90;;;;;;5093612;28;20103;-78
2023/02/18 00:22:53;;;;;;;1999.90;999.90;;;11.00;99.90;;;;;;5092775;28;20042;-78
2023/02/18 00:25:19;;;;;;;1999.90;999.90;;;10.90;99.90;;;;;;5093507;28;20036;-77
2023/02/18 00:27:44;;;;;;;1999.90;999.90;;;11.00;99.90;;;;;;5093428;28;20077;-78
2023/02/18 00:30:10;;;;;;;1999.90;999.90;;;11.00;99.90;;;;;;5093150;28;20056;-73
2023/02/18 00:32:36;;;;;;;1999.90;999.90;;;11.00;99.90;;;;;;5093639;28;20027;-73
2023/02/18 00:35:02;;;;;;;1999.90;999.90;;;11.00;99.90;;;;;;5093366;28;20504;-73
2023/02/18 00:37:27;;;;;;;1999.90;999.90;;;11.00;99.90;;;;;;5092896;28;20515;-73
2023/02/18 00:39:53;;;;;;;1999.90;999.90;;;11.00;99.90;;;;;;5093198;28;20038;-78
2023/02/18 00:42:19;;;;;;;1999.90;999.90;;;11.00;99.90;;;;;;5093059;28;20036;-73
2023/02/18 00:44:44;;;;;;;1999.90;999.90;;;11.00;99.90;;;;;;5092129;28;20122;-77
2023/02/18 00:47:10;;;;;;;1999.90;999.90;;;11.10;99.90;;;;;;5091984;28;20040;-77
2023/02/18 00:49:36;;;;;;;1999.90;999.90;;;11.00;99.90;;;;;;5092972;28;20671;-73
2023/02/18 00:52:01;;;;;;;1999.90;999.90;;;11.10;99.90;;;;;;5093179;28;20028;-77
2023/02/18 00:54:27;;;;;;;1999.90;999.90;;;11.10;99.90;;;;;;5091642;28;20077;-73
2023/02/18 00:56:52;;;;;;;1999.90;999.90;;;11.10;99.90;;;;;;5093091;28;20062;-78
2023/02/18 00:59:18;;;;;;;1999.90;999.90;;;11.10;99.90;;;;;;5092642;28;20067;-73
2023/02/18 01:01:44;;;;;;;1999.90;999.90;;;11.10;99.90;;;;;;5092063;28;20123;-73
2023/02/18 01:04:09;;;;;;;1999.90;999.90;;;11.10;99.90;;;;;;5092854;28;20024;-73
2023/02/18 01:06:35;;;;;;;1999.90;999.90;;;11.10;99.90;;;;;;5093276;28;20105;-73
2023/02/18 01:09:01;;;;;;;1999.90;999.90;;;11.10;99.90;;;;;;5092501;28;20054;-73
2023/02/18 01:11:26;;;;;;;1999.90;999.90;;;11.10;99.90;;;;;;5092418;28;20492;-73
2023/02/18 01:13:52;;;;;;;1999.90;999.90;;;11.10;99.90;;;;;;5092476;28;20032;-73
2023/02/18 01:16:18;;;;;;;1999.90;999.90;;;11.10;99.90;;;;;;5091954;28;20488;-75
2023/02/18 01:18:44;;;;;;;1999.90;999.90;;;11.10;99.90;;;;;;5092730;28;20028;-78
2023/02/18 01:21:10;;;;;;;1999.90;999.90;;;11.10;99.90;;;;;;5092477;28;20052;-77
2023/02/18 01:23:37;;;;;;;1999.90;999.90;;;11.10;99.90;;;;;;5092403;28;20385;-73
2023/02/18 01:26:03;;;;;;;1999.90;999.90;;;11.10;99.90;;;;;;5092295;28;20441;-73
2023/02/18 01:28:29;;;;;;;1999.90;999.90;;;11.00;99.90;;;;;;5092443;28;20062;-77
2023/02/18 01:30:54;;;;;;;1999.90;999.90;;;11.10;99.90;;;;;;5092616;28;20107;-77
2023/02/18 01:33:20;;;;;;;1999.90;999.90;;;11.10;99.90;;;;;;5092129;28;20042;-73
2023/02/18 01:35:46;;;;;;;1999.90;999.90;;;11.00;99.90;;;;;;5090878;28;20373;-73
2023/02/18 01:38:11;;;;;;;1999.90;999.90;;;11.00;99.90;;;;;;5091887;28;20031;-73
2023/02/18 01:40:46;;;;;;;1999.90;999.90;;;11.10;99.90;;;;;;5092435;28;20062;-77
2023/02/18 01:43:12;;;;;;;1999.90;999.90;;;11.10;99.90;;;;;;5091964;28;20028;-73
2023/02/18 01:46:03;;;;;;;1999.90;999.90;;;11.10;99.90;;;;;;5089691;28;20055;-77
2023/02/18 01:48:44;;;;;;;1999.90;999.90;;;11.10;99.90;;;;;;5092307;28;20024;-73
2023/02/18 01:51:27;;;;;;;1999.90;999.90;;;11.10;99.90;;;;;;5090872;28;20031;-73
2023/02/18 01:54:20;;;;;;;1999.90;999.90;;;11.10;99.90;;;;;;5092046;28;20028;-77
2023/02/18 01:57:09;;;;;;;1999.90;999.90;;;11.10;99.90;;;;;;5091701;28;20086;-77
2023/02/18 01:59:45;;;;;;;1999.90;999.90;;;11.10;99.90;;;;;;5097484;28;20401;-73
2023/02/18 02:02:14;;;;;;;1999.90;999.90;;;11.10;99.90;;;;;;5098256;28;20038;-73
2023/02/18 02:04:40;;;;;;;1999.90;999.90;;;11.20;99.90;;;;;;5099125;28;20031;-74
2023/02/18 02:07:06;;;;;;;1999.90;999.90;;;11.10;99.90;;;;;;5099072;28;20107;-77
2023/02/18 02:09:34;;;;;;;1999.90;999.90;;;11.10;99.90;;;;;;5098686;28;20115;-78
2023/02/18 02:12:41;;;;;;;1999.90;999.90;;;11.10;99.90;;;;;;5098472;28;20028;-73
2023/02/18 02:15:21;;;;;;;1999.90;999.90;;;11.10;99.90;;;;;;5098187;28;20031;-73
2023/02/18 02:17:53;;;;;;;1999.90;999.90;;;11.10;99.90;;;;;;5097586;28;20028;-73
2023/02/18 02:20:30;;;;;;;1999.90;999.90;;;11.10;99.90;;;;;;5098596;28;20048;-73
2023/02/18 02:23:14;;;;;;;1999.90;999.90;;;11.10;99.90;;;;;;5098814;28;20035;-74
2023/02/18 02:25:58;;;;;;;1999.90;999.90;;;11.10;99.90;;;;;;5098493;28;20468;-73
2023/02/18 02:29:17;;;;;;;1999.90;999.90;;;11.10;99.90;;;;;;5098620;28;20032;-73
2023/02/18 02:32:10;;;;;;;1999.90;999.90;;;11.10;99.90;;;;;;5016164;28;20033;-74
2023/02/18 02:35:07;;;;;;;1999.90;999.90;;;11.10;99.90;;;;;;5098849;28;20028;-77
2023/02/18 02:38:02;;;;;;;1999.90;999.90;;;11.10;99.90;;;;;;5098111;28;20107;-74
2023/02/18 02:40:50;;;;;;;1999.90;999.90;;;11.10;99.90;;;;;;5087549;28;20559;-74
2023/02/18 02:43:22;;;;;;;1999.90;999.90;;;11.10;99.90;;;;;;5098304;28;20034;-77
2023/02/18 02:46:07;;;;;;;1999.90;999.90;;;11.10;99.90;;;;;;5096033;28;20097;-73
2023/02/18 02:48:42;;;;;;;1999.90;999.90;;;11.10;99.90;;;;;;5098526;28;20031;-74
2023/02/18 02:51:33;;;;;;;1999.90;999.90;;;11.10;99.90;;;;;;5097803;28;20035;-77
2023/02/18 02:54:21;;;;;;;1999.90;999.90;;;11.00;99.90;;;;;;5098220;28;20028;-73
2023/02/18 02:56:48;;;;;;;1999.90;999.90;;;10.90;99.90;;;;;;5098244;28;20050;-74
2023/02/18 02:59:19;;;;;;;1999.90;999.90;;;11.00;99.90;;;;;;5098030;28;20078;-77
2023/02/18 03:02:05;;;;;;;1999.90;999.90;;;10.90;99.90;;;;;;5098074;28;20112;-73
2023/02/18 03:04:39;;;;;;;1999.90;999.90;;;11.00;99.90;;;;;;5097656;28;20024;-74
2023/02/18 03:07:42;;;;;;;1999.90;999.90;;;11.00;99.90;;;;;;5098524;28;20116;-74
2023/02/18 03:10:22;;;;;;;1999.90;999.90;;;11.00;99.90;;;;;;5094579;28;20032;-73
2023/02/18 03:13:09;;;;;;;1999.90;999.90;;;11.00;99.90;;;;;;5094254;28;20028;-78
2023/02/18 03:15:51;;;;;;;1999.90;999.90;;;11.00;99.90;;;;;;5094870;28;20020;-78
2023/02/18 03:18:32;;;;;;;1999.90;999.90;;;11.00;99.90;;;;;;5094699;28;20065;-73
2023/02/18 03:21:01;;;;;;;1999.90;999.90;;;11.00;99.90;;;;;;5095014;28;20020;-77
2023/02/18 03:23:36;;;;;;;1999.90;999.90;;;10.90;99.90;;;;;;5094740;28;20054;-74
2023/02/18 03:26:04;;;;;;;1999.90;999.90;;;10.90;99.90;;;;;;5094560;28;20012;-74
2023/02/18 03:28:32;;;;;;;1999.90;999.90;;;10.90;99.90;;;;;;5094690;28;20024;-74
2023/02/18 03:31:08;;;;;;;1999.90;999.90;;;10.90;99.90;;;;;;5094779;28;20025;-74
2023/02/18 03:33:43;;;;;;;1999.90;999.90;;;10.90;99.90;;;;;;5094556;28;20403;-73
2023/02/18 03:36:10;;;;;;;1999.90;999.90;;;11.00;99.90;;;;;;5094360;28;20016;-78
2023/02/18 03:38:39;;;;;;;1999.90;999.90;;;10.90;99.90;;;;;;5094357;28;20469;-73
2023/02/18 03:41:04;;;;;;;1999.90;999.90;;;10.90;99.90;;;;;;5094170;28;20028;-73
2023/02/18 03:43:30;;;;;;;1999.90;999.90;;;10.80;99.90;;;;;;5094291;28;20028;-73
2023/02/18 03:45:57;;;;;;;1999.90;999.90;;;10.80;99.90;;;;;;5091162;28;20131;-73
2023/02/18 03:48:22;;;;;;;1999.90;999.90;;;10.80;99.90;;;;;;5094409;28;20031;-77
2023/02/18 03:50:48;;;;;;;1999.90;999.90;;;10.80;99.90;;;;;;5094358;28;20028;-77
2023/02/18 03:53:14;;;;;;;1999.90;999.90;;;10.80;99.90;;;;;;5093936;28;20024;-77
2023/02/18 03:55:39;;;;;;;1999.90;999.90;;;10.80;99.90;;;;;;5094291;28;20047;-74
2023/02/18 03:58:05;;;;;;;1999.90;999.90;;;10.80;99.90;;;;;;5094046;28;20024;-73
2023/02/18 04:00:31;;;;;;;1999.90;999.90;;;10.70;99.90;;;;;;5094184;28;20020;-77
2023/02/18 04:02:56;;;;;;;1999.90;999.90;;;10.80;99.90;;;;;;5094191;28;20438;-74
2023/02/18 04:05:22;;;;;;;1999.90;999.90;;;10.70;99.90;;;;;;5093007;28;20059;-77
2023/02/18 04:07:47;;;;;;;1999.90;999.90;;;10.70;99.90;;;;;;5091767;28;20040;-77
2023/02/18 04:10:13;;;;;;;1999.90;999.90;;;10.70;99.90;;;;;;5093698;28;20031;-78
2023/02/18 04:12:39;;;;;;;1999.90;999.90;;;10.70;99.90;;;;;;5094039;28;20028;-73
2023/02/18 04:15:05;;;;;;;1999.90;999.90;;;10.70;99.90;;;;;;5093639;28;20081;-74
2023/02/18 04:17:32;;;;;;;1999.90;999.90;;;10.70;99.90;;;;;;5093094;28;20016;-73
2023/02/18 04:19:58;;;;;;;1999.90;999.90;;;10.80;99.90;;;;;;5093618;28;20447;-74
2023/02/18 04:22:23;;;;;;;1999.90;999.90;;;10.70;99.90;;;;;;5093380;28;20055;-74
2023/02/18 04:24:49;;;;;;;1999.90;999.90;;;10.80;99.90;;;;;;5093656;28;20035;-78
2023/02/18 04:27:15;;;;;;;1999.90;999.90;;;10.80;99.90;;;;;;5093316;28;20099;-74
2023/02/18 04:29:40;;;;;;;1999.90;999.90;;;10.80;99.90;;;;;;5093444;28;20032;-77
2023/02/18 04:32:06;;;;;;;1999.90;999.90;;;10.80;99.90;;;;;;5093397;28;20464;-78
2023/02/18 04:34:31;;;;;;;1999.90;999.90;;;10.80;99.90;;;;;;5092150;28;20020;-74
2023/02/18 04:36:57;;;;;;;1999.90;999.90;;;10.80;99.90;;;;;;5093283;28;20027;-74
2023/02/18 04:39:23;;;;;;;1999.90;999.90;;;10.80;99.90;;;;;;5092454;28;20154;-73
2023/02/18 04:41:49;;;;;;;1999.90;999.90;;;10.80;99.90;;;;;;5093166;28;20032;-73
2023/02/18 04:44:14;;;;;;;1999.90;999.90;;;10.80;99.90;;;;;;5093347;28;20036;-73
2023/02/18 04:46:40;;;;;;;1999.90;999.90;;;10.80;99.90;;;;;;5091182;28;20059;-73
2023/02/18 04:49:06;;;;;;;1999.90;999.90;;;10.80;99.90;;;;;;5093022;28;20385;-74
2023/02/18 04:51:32;;;;;;;1999.90;999.90;;;10.80;99.90;;;;;;5091398;28;20056;-74
2023/02/18 04:53:57;;;;;;;1999.90;999.90;;;10.80;99.90;;;;;;5092823;28;20031;-78
2023/02/18 04:56:23;;;;;;;1999.90;999.90;;;10.80;99.90;;;;;;5092879;28;20140;-74
2023/02/18 04:58:48;;;;;;;1999.90;999.90;;;10.80;99.90;;;;;;5090734;28;20110;-74
2023/02/18 05:01:14;;;;;;;1999.90;999.90;;;10.80;99.90;;;;;;5092957;28;20104;-78
2023/02/18 05:03:40;;;;;;;1999.90;999.90;;;10.80;99.90;;;;;;5092736;28;20036;-73
2023/02/18 05:06:05;;;;;;;1999.90;999.90;;;10.80;99.90;;;;;;5092136;28;20111;-73
2023/02/18 05:08:31;;;;;;;1999.90;999.90;;;10.80;99.90;;;;;;5092764;28;20523;-74
2023/02/18 05:10:57;;;;;;;1999.90;999.90;;;10.80;99.90;;;;;;5092940;28;20030;-74
2023/02/18 05:13:22;;;;;;;1999.90;999.90;;;10.80;99.90;;;;;;5092427;28;20030;-74
2023/02/18 05:15:48;;;;;;;1999.90;999.90;;;10.80;99.90;;;;;;5092525;28;20027;-74
2023/02/18 05:18:14;;;;;;;1999.90;999.90;;;10.80;99.90;;;;;;5091093;28;20028;-77
2023/02/18 05:20:40;;;;;;;1999.90;999.90;;;10.80;99.90;;;;;;5092951;28;20016;-74
2023/02/18 05:23:05;;;;;;;1999.90;999.90;;;10.80;99.90;;;;;;5092585;28;20032;-74
2023/02/18 05:25:31;;;;;;;1999.90;999.90;;;10.80;99.90;;;;;;5092447;28;20040;-73
2023/02/18 05:27:57;;;;;;;1999.90;999.90;;;10.70;99.90;;;;;;5092232;28;20035;-77
2023/02/18 05:30:22;;;;;;;1999.90;999.90;;;10.70;99.90;;;;;;5092047;28;20036;-78
2023/02/18 05:32:48;;;;;;;1999.90;999.90;;;10.70;99.90;;;;;;5091864;28;20035;-74
2023/02/18 05:35:14;;;;;;;1999.90;999.90;;;10.70;99.90;;;;;;5092194;28;20066;-77
2023/02/18 05:37:39;;;;;;;1999.90;999.90;;;10.60;99.90;;;;;;5092026;28;20043;-73
2023/02/18 05:40:06;;;;;;;1999.90;999.90;;;10.50;99.90;;;;;;5092276;28;20378;-74
2023/02/18 05:42:31;;;;;;;1999.90;999.90;;;10.50;99.90;;;;;;5092237;28;20036;-73
2023/02/18 05:44:58;;;;;;;1999.90;999.90;;;10.50;99.90;;;;;;5090079;28;20039;-77
2023/02/18 05:47:23;;;;;;;1999.90;999.90;;;10.50;99.90;;;;;;5092225;28;20107;-73
2023/02/18 05:49:49;;;;;;;1999.90;999.90;;;10.50;99.90;;;;;;5092085;28;20110;-74
2023/02/18 05:52:16;;;;;;;1999.90;999.90;;;10.50;99.90;;;;;;5090683;28;20461;-74
2023/02/18 05:54:42;;;;;;;1999.90;999.90;;;10.40;99.90;;;;;;5092139;28;20557;-74
2023/02/18 05:57:07;;;;;;;1999.90;999.90;;;10.40;99.90;;;;;;5092071;28;20051;-73
2023/02/18 05:59:33;;;;;;;1999.90;999.90;;;10.40;99.90;;;;;;5092004;28;20504;-73
2023/02/18 06:01:59;;;;;;;1999.90;999.90;;;10.40;99.90;;;;;;5091948;28;20480;-73
2023/02/18 06:04:25;;;;;;;1999.90;999.90;;;10.40;99.90;;;;;;5092047;28;20680;-73
2023/02/18 06:06:51;;;;;;;1999.90;999.90;;;10.40;99.90;;;;;;5090262;28;20127;-77
2023/02/18 06:09:16;;;;;;;1999.90;999.90;;;10.40;99.90;;;;;;5091954;28;20040;-74
2023/02/18 06:11:42;;;;;;;1999.90;999.90;;;10.40;99.90;;;;;;5091765;28;20024;-73
2023/02/18 06:14:08;;;;;;;1999.90;999.90;;;10.30;99.90;;;;;;5091853;28;20062;-73
2023/02/18 06:16:33;;;;;;;1999.90;999.90;;;10.30;99.90;;;;;;5092337;28;20048;-73
2023/02/18 06:18:59;;;;;;;1999.90;999.90;;;10.20;99.90;;;;;;5090533;28;20073;-77
2023/02/18 06:21:25;;;;;;;1999.90;999.90;;;10.10;99.90;;;;;;5091530;28;20511;-73
2023/02/18 06:23:50;;;;;;;1999.90;999.90;;;10.20;99.90;;;;;;5091844;28;20036;-77
2023/02/18 06:26:16;;;;;;;1999.90;999.90;;;10.20;99.90;;;;;;5091614;28;20099;-73
2023/02/18 06:28:42;;;;;;;1999.90;999.90;;;10.20;99.90;;;;;;5091789;28;20062;-77
2023/02/18 06:31:07;;;;;;;1999.90;999.90;;;10.20;99.90;;;;;;5091699;28;20102;-73
2023/02/18 06:33:33;;;;;;;1999.90;999.90;;;10.20;99.90;;;;;;5091622;28;20035;-74
2023/02/18 06:36:06;;;;;;;1999.90;999.90;;;10.20;99.90;;;;;;5083542;28;20074;-74
2023/02/18 06:38:33;;;;;;;1999.90;999.90;;;10.20;99.90;;;;;;5081122;28;20074;-77
2023/02/18 06:40:58;;;;;;;1999.90;999.90;;;10.20;99.90;;;;;;5091785;28;20028;-74
2023/02/18 06:43:24;;;;;;;1999.90;999.90;;;10.20;99.90;;;;;;5091683;28;20031;-74
2023/02/18 06:45:50;;;;;;;1999.90;999.90;;;10.20;99.90;;;;;;5092797;28;20045;-74
2023/02/18 06:48:16;;;;;;;1999.90;999.90;;;10.20;99.90;;;;;;5095518;28;20060;-77
2023/02/18 06:50:42;;;;;;;1999.90;999.90;;;10.10;99.90;;;;;;5095551;28;20060;-73
2023/02/18 06:53:07;;;;;;;1999.90;999.90;;;10.20;99.90;;;;;;5095193;28;20028;-77
2023/02/18 06:55:33;;;;;;;1999.90;999.90;;;10.20;99.90;;;;;;5095228;28;20020;-73
2023/02/18 06:57:59;;;;;;;1999.90;999.90;;;10.20;99.90;;;;;;5095225;28;20035;-77
2023/02/18 07:00:24;;;;;;;1999.90;999.90;;;10.20;99.90;;;;;;5095175;28;20020;-73
2023/02/18 07:02:50;;;;;;;1999.90;999.90;;;10.10;99.90;;;;;;5095444;28;20111;-73
2023/02/18 07:05:16;;;;;;;1999.90;999.90;;;10.00;99.90;;;;;;5094936;28;20031;-73
2023/02/18 07:07:41;;;;;;;1999.90;999.90;;;10.00;99.90;;;;;;5094710;28;20036;-73
2023/02/18 07:10:08;;;;;;;1999.90;999.90;;;10.00;99.90;;;;;;5094901;28;20024;-77
2023/02/18 07:12:34;;;;;;;1999.90;999.90;;;10.00;99.90;;;;;;5095036;28;20107;-73
2023/02/18 07:14:59;;;;;;;1999.90;999.90;;;10.00;99.90;;;;;;5095059;28;20103;-73
2023/02/18 07:17:25;;;;;;;1999.90;999.90;;;9.90;99.90;;;;;;5094135;28;20480;-77
2023/02/18 07:19:50;;;;;;;1999.90;999.90;;;10.00;99.90;;;;;;5094758;28;20035;-77
2023/02/18 07:22:16;;;;;;;1999.90;999.90;;;9.90;99.90;;;;;;5094700;28;20103;-77
2023/02/18 07:24:42;;;;;;;1999.90;999.90;;;10.00;99.90;;;;;;5095200;28;20028;-73
2023/02/18 07:27:07;;;;;;;1999.90;999.90;;;10.00;99.90;;;;;;5094741;28;20374;-73
2023/02/18 07:29:33;;;;;;;1999.90;999.90;;;10.00;99.90;;;;;;5093348;28;20039;-73
2023/02/18 07:31:59;;;;;;;1999.90;999.90;;;10.00;99.90;;;;;;5094475;28;20111;-73
2023/02/18 07:34:24;;;;;;;1999.90;999.90;;;10.00;99.90;;;;;;5094524;28;20530;-77
2023/02/18 07:36:50;;;;;;;1999.90;999.90;;;10.10;99.90;;;;;;5094648;28;20103;-77
2023/02/18 07:39:19;;;;;;;1999.90;999.90;;;10.00;99.90;;;;;;5094165;28;20097;-73
2023/02/18 07:41:46;;;;;;;1999.90;999.90;;;10.00;99.90;;;;;;5094455;28;20077;-77
2023/02/18 07:44:11;;;;;;;1999.90;999.90;;;9.90;99.90;;;;;;5094416;28;20027;-73
2023/02/18 07:46:41;;;;;;;1999.90;999.90;;;9.90;99.90;;;;;;5092041;28;20047;-77
2023/02/18 07:49:07;;;;;;;1999.90;999.90;;;9.90;99.90;;;;;;5094423;28;20016;-73
2023/02/18 07:51:33;;;;;;;1999.90;999.90;;;9.90;99.90;;;;;;5094465;28;20049;-73
2023/02/18 07:53:59;;;;;;;1999.90;999.90;;;9.90;99.90;;;;;;5094059;28;20027;-73
2023/02/18 07:56:24;;;;;;;1999.90;999.90;;;9.90;99.90;;;;;;5093458;28;20020;-73
2023/02/18 07:58:50;;;;;;;1999.90;999.90;;;10.00;99.90;;;;;;5094212;28;20020;-77
2023/02/18 08:01:16;;;;;;;1999.90;999.90;;;10.00;99.90;;;;;;5094040;28;20104;-73
2023/02/18 08:03:41;;;;;;;1999.90;999.90;;;10.00;99.90;;;;;;5094004;28;20488;-73
2023/02/18 08:06:07;;;;;;;1999.90;999.90;;;10.00;99.90;;;;;;5093868;28;20036;-77
2023/02/18 08:08:33;;;;;;;1999.90;999.90;;;10.10;99.90;;;;;;5092891;28;20028;-73
2023/02/18 08:11:01;;;;;;;1999.90;999.90;;;10.20;99.90;;;;;;5093830;28;20043;-73
2023/02/18 08:13:28;;;;;;;1999.90;999.90;;;10.30;99.90;;;;;;5093658;28;20103;-73
2023/02/18 08:15:55;;;;;;;1999.90;999.90;;;10.30;99.90;;;;;;5093671;28;20024;-73
2023/02/18 08:18:22;;;;;;;1999.90;999.90;;;10.40;99.90;;;;;;5092348;28;20418;-73
2023/02/18 08:20:50;;;;;;;1999.90;999.90;;;10.50;99.90;;;;;;5093796;28;20031;-77
2023/02/18 08:23:18;;;;;;;1999.90;999.90;;;10.50;99.90;;;;;;5093594;28;20028;-74
2023/02/18 08:25:46;;;;;;;1999.90;999.90;;;10.50;99.90;;;;;;5093518;28;20028;-73
2023/02/18 08:28:12;;;;;;;1999.90;999.90;;;10.60;99.90;;;;;;5093417;28;20024;-73
2023/02/18 08:30:37;;;;;;;1999.90;999.90;;;10.60;99.90;;;;;;5093620;28;20043;-74
2023/02/18 08:33:03;;;;;;;1999.90;999.90;;;10.60;99.90;;;;;;5093563;28;20027;-74
2023/02/18 08:35:28;;;;;;;1999.90;999.90;;;10.60;99.90;;;;;;5093221;28;20024;-74
2023/02/18 08:37:54;;;;;;;1999.90;999.90;;;10.60;99.90;;;;;;5093009;28;20031;-74
2023/02/18 08:40:20;;;;;;;1999.90;999.90;;;10.60;99.90;;;;;;5093345;28;20603;-74
2023/02/18 08:42:45;;;;;;;1999.90;999.90;;;10.60;99.90;;;;;;5093308;28;20031;-74
2023/02/18 08:45:11;;;;;;;1999.90;999.90;;;10.60;99.90;;;;;;5090988;28;20081;-78
2023/02/18 08:47:37;;;;;;;1999.90;999.90;;;10.70;99.90;;;;;;5092981;28;20031;-74
2023/02/18 08:50:04;;;;;;;1999.90;999.90;;;10.80;99.90;;;;;;5092977;28;20032;-74
2023/02/18 08:52:29;;;;;;;1999.90;999.90;;;10.90;99.90;;;;;;5093018;28;20041;-74
2023/02/18 08:54:55;;;;;;;1999.90;999.90;;;11.00;99.90;;;;;;5093075;28;20491;-78
2023/02/18 08:57:20;;;;;;;1999.90;999.90;;;11.10;99.90;;;;;;5092911;28;20027;-74
2023/02/18 08:59:46;;;;;;;1999.90;999.90;;;11.10;99.90;;;;;;5092759;28;20103;-74
2023/02/18 09:02:13;;;;;;;1999.90;999.90;;;11.30;99.90;;;;;;5092746;28;20031;-74
2023/02/18 09:04:39;;;;;;;1999.90;999.90;;;11.40;99.90;;;;;;5092961;28;20114;-74
2023/02/18 09:07:05;;;;;;;1999.90;999.90;;;11.50;99.90;;;;;;5092027;28;20060;-78
2023/02/18 09:09:30;;;;;;;1999.90;999.90;;;11.50;99.90;;;;;;5092115;28;20043;-74
2023/02/18 09:11:56;;;;;;;1999.90;999.90;;;11.40;99.90;;;;;;5091134;28;20024;-74
2023/02/18 09:14:22;;;;;;;1999.90;999.90;;;11.40;99.90;;;;;;5092653;28;20030;-75
2023/02/18 09:16:49;;;;;;;1999.90;999.90;;;11.50;99.90;;;;;;5092784;28;20020;-74
2023/02/18 09:19:15;;;;;;;1999.90;999.90;;;11.50;99.90;;;;;;5092539;28;20020;-74
2023/02/18 09:21:41;;;;;;;1999.90;999.90;;;11.50;99.90;;;;;;5092362;28;20031;-74
2023/02/18 09:24:06;;;;;;;1999.90;999.90;;;11.50;99.90;;;;;;5092416;28;20481;-74
2023/02/18 09:26:32;;;;;;;1999.90;999.90;;;11.60;99.90;;;;;;5092324;28;20028;-74
2023/02/18 09:28:58;;;;;;;1999.90;999.90;;;11.70;99.90;;;;;;5092571;28;20024;-75
2023/02/18 09:31:26;;;;;;;1999.90;999.90;;;11.60;99.90;;;;;;5092596;28;20384;-74
2023/02/18 09:33:56;;;;;;;1999.90;999.90;;;11.80;99.90;;;;;;5092336;28;20031;-74
2023/02/18 09:36:22;;;;;;;1999.90;999.90;;;11.90;99.90;;;;;;5092224;28;20027;-74
2023/02/18 09:38:49;;;;;;;1999.90;999.90;;;11.90;99.90;;;;;;5092237;28;20042;-75
2023/02/18 09:41:28;;;;;;;1999.90;999.90;;;11.90;99.90;;;;;;5092388;28;20024;-78
2023/02/18 09:44:01;;;;;;;1999.90;999.90;;;11.90;99.90;;;;;;5092045;28;20103;-75
2023/02/18 09:46:32;;;;;;;1999.90;999.90;;;12.00;99.90;;;;;;5089888;28;20044;-75
2023/02/18 09:49:06;;;;;;;1999.90;999.90;;;12.20;99.90;;;;;;5092161;28;20073;-75
2023/02/18 09:51:31;;;;;;;1999.90;999.90;;;12.30;99.90;;;;;;5091751;28;20534;-75
2023/02/18 09:53:58;;;;;;;1999.90;999.90;;;12.40;99.90;;;;;;5091957;28;20028;-75
2023/02/18 09:56:30;;;;;;;1999.90;999.90;;;12.50;99.90;;;;;;5092178;28;20028;-75
2023/02/18 09:58:58;;;;;;;1999.90;999.90;;;12.40;99.90;;;;;;5092371;28;20035;-78
2023/02/18 10:01:36;;;;;;;1999.90;999.90;;;12.50;99.90;;;;;;5092024;28;20027;-75
2023/02/18 10:04:26;;;;;;;1999.90;999.90;;;12.50;99.90;;;;;;5092073;28;20028;-75
2023/02/18 10:06:52;;;;;;;1999.90;999.90;;;12.50;99.90;;;;;;5080641;28;20040;-75
2023/02/18 10:09:24;;;;;;;1999.90;999.90;;;12.60;99.90;;;;;;5091270;28;20037;-75
2023/02/18 10:12:01;;;;;;;1999.90;999.90;;;12.60;99.90;;;;;;5090518;28;20039;-75
2023/02/18 10:14:28;;;;;;;1999.90;999.90;;;13.10;99.90;;;;;;5090583;28;20073;-75
2023/02/18 10:16:56;;;;;;;1999.90;999.90;;;13.30;99.90;;;;;;5098602;28;20484;-75
2023/02/18 10:19:31;;;;;;;1999.90;999.90;;;13.10;99.90;;;;;;5114063;28;20027;-75
2023/02/18 10:21:57;;;;;;;1999.90;999.90;;;13.10;99.90;;;;;;5116419;28;20024;-75
2023/02/18 10:24:39;;;;;;;1999.90;999.90;;;13.10;99.90;;;;;;5116217;28;20019;-75
2023/02/18 10:27:07;;;;;;;1999.90;999.90;;;13.00;99.90;;;;;;5116104;28;20023;-75
2023/02/18 10:29:34;;;;;;;1999.90;999.90;;;13.00;99.90;;;;;;5116211;28;20091;-79
2023/02/18 10:32:22;;;;;;;1999.90;999.90;;;13.10;99.90;;;;;;5116108;28;20111;-79
2023/02/18 10:35:03;;;;;;;1999.90;999.90;;;13.00;99.90;;;;;;5116379;28;20098;-75
2023/02/18 10:37:50;;;;;;;1999.90;999.90;;;13.10;99.90;;;;;;5114520;28;20020;-79
2023/02/18 10:40:58;;;;;;;1999.90;999.90;;;13.10;99.90;;;;;;5094677;28;20081;-75
2023/02/18 10:43:51;;;;;;;1999.90;999.90;;;13.10;99.90;;;;;;5073658;28;20036;-79
2023/02/18 10:46:44;;;;;;;1999.90;999.90;;;13.10;99.90;;;;;;5093202;28;20119;-79
2023/02/18 10:49:24;;;;;;;1999.90;999.90;;;13.20;99.90;;;;;;5095455;28;20042;-79
2023/02/18 10:51:54;;;;;;;1999.90;999.90;;;13.30;99.90;;;;;;5095178;28;20032;-75
2023/02/18 10:54:24;;;;;;;1999.90;999.90;;;13.20;99.90;;;;;;5095359;28;20028;-75
2023/02/18 10:56:52;;;;;;;1999.90;999.90;;;13.20;99.90;;;;;;5095526;28;20016;-79
2023/02/18 10:59:22;;;;;;;1999.90;999.90;;;13.20;99.90;;;;;;5094845;28;20028;-79
2023/02/18 11:01:56;;;;;;;1999.90;999.90;;;13.20;99.90;;;;;;5094940;28;20034;-79
2023/02/18 11:04:34;;;;;;;1999.90;999.90;;;13.20;99.90;;;;;;5095042;28;20020;-75
2023/02/18 11:07:20;;;;;;;1999.90;999.90;;;13.20;99.90;;;;;;5095459;28;20028;-75
2023/02/18 11:09:54;;;;;;;1999.90;999.90;;;13.10;99.90;;;;;;5094409;28;20447;-75
2023/02/18 11:12:45;;;;;;;1999.90;999.90;;;12.90;99.90;;;;;;5094211;28;20038;-79
2023/02/18 11:15:17;;;;;;;1999.90;999.90;;;12.70;99.90;;;;;;5094992;28;20028;-75
2023/02/18 11:17:45;;;;;;;1999.90;999.90;;;12.50;99.90;;;;;;5094799;28;20095;-75
2023/02/18 11:20:34;;;;;;;1999.90;999.90;;;12.50;99.90;;;;;;5094908;28;20047;-75
2023/02/18 11:23:05;;;;;;;1999.90;999.90;;;12.60;99.90;;;;;;5094855;28;20024;-75
2023/02/18 11:25:33;;;;;;;1999.90;999.90;;;12.70;99.90;;;;;;5094855;28;20061;-78
2023/02/18 11:28:02;;;;;;;1999.90;999.90;;;13.00;99.90;;;;;;5094507;28;20039;-79
2023/02/18 11:30:39;;;;;;;1999.90;999.90;;;13.30;99.90;;;;;;5093633;28;20097;-75
2023/02/18 11:33:17;;;;;;;1999.90;999.90;;;13.60;99.90;;;;;;5094692;28;20032;-75
2023/02/18 11:35:55;;;;;;;1999.90;999.90;;;13.80;99.90;;;;;;5093178;28;20020;-75
2023/02/18 11:38:26;;;;;;;1999.90;999.90;;;13.90;99.90;;;;;;5094160;28;20090;-75
2023/02/18 11:40:59;;;;;;;1999.90;999.90;;;14.00;99.90;;;;;;5094712;28;20109;-76
2023/02/18 11:43:29;;;;;;;1999.90;999.90;;;14.50;99.90;;;;;;5094472;28;20028;-75
2023/02/18 11:46:10;;;;;;;1999.90;999.90;;;14.70;99.90;;;;;;5092068;28;20538;-80
2023/02/18 11:48:36;;;;;;;1999.90;999.90;;;14.80;99.90;;;;;;5094484;28;20399;-76
2023/02/18 11:51:02;;;;;;;1999.90;999.90;;;15.00;99.90;;;;;;5094294;28;20024;-76
2023/02/18 11:53:30;;;;;;;1999.90;999.90;;;15.00;99.90;;;;;;5093881;28;20426;-76
2023/02/18 11:55:59;;;;;;;1999.90;999.90;;;15.10;99.90;;;;;;5094504;28;20028;-76
2023/02/18 11:58:26;;;;;;;1999.90;999.90;;;15.10;99.90;;;;;;5093995;28;20103;-76
2023/02/18 12:01:02;;;;;;;1999.90;999.90;;;15.10;99.90;;;;;;5094443;28;20027;-76
2023/02/18 12:03:43;;;;;;;1999.90;999.90;;;15.10;99.90;;;;;;5094061;28;20024;-76
2023/02/18 12:06:21;;;;;;;1999.90;999.90;;;15.00;99.90;;;;;;5093859;28;20430;-80
2023/02/18 12:09:16;;;;;;;1999.90;999.90;;;15.00;99.90;;;;;;5094313;28;20111;-80
2023/02/18 12:11:59;;;;;;;1999.90;999.90;;;14.90;99.90;;;;;;5092933;28;20035;-76